createdAt,value
2019-05-13T00:01:30.777Z,99.90
2019-05-13T00:04:00.525Z,99.90
2019-05-13T00:06:34.297Z,99.90
2019-05-13T00:09:14.092Z,99.90
2019-05-13T00:11:55.709Z,99.90
2019-05-13T00:14:26.181Z,99.90
2019-05-13T00:17:00.506Z,99.90
2019-05-13T00:19:30.152Z,99.90
2019-05-13T00:22:03.858Z,99.90
2019-05-13T00:24:37.459Z,99.90
2019-05-13T00:27:06.779Z,99.90
2019-05-13T00:29:36.016Z,99.90
2019-05-13T00:32:05.202Z,99.90
2019-05-13T00:34:34.485Z,99.90
2019-05-13T00:37:10.729Z,99.90
2019-05-13T00:39:34.967Z,99.90
2019-05-13T00:42:04.315Z,99.90
2019-05-13T00:44:33.933Z,99.90
2019-05-13T00:47:04.397Z,99.90
2019-05-13T00:49:34.519Z,99.90
2019-05-13T00:52:04.105Z,99.90
2019-05-13T00:54:34.177Z,99.90
2019-05-13T00:57:04.282Z,99.90
2019-05-13T00:59:34.111Z,99.90
2019-05-13T01:02:03.963Z,99.90
2019-05-13T01:04:35.354Z,99.90
2019-05-13T01:07:04.771Z,99.90
2019-05-13T01:09:34.340Z,99.90
2019-05-13T01:12:04.729Z,99.90
2019-05-13T01:14:34.316Z,99.90
2019-05-13T01:17:04.093Z,99.90
2019-05-13T01:19:34.301Z,99.90
2019-05-13T01:22:04.111Z,99.90
2019-05-13T01:24:33.938Z,99.90
2019-05-13T01:27:04.083Z,99.90
2019-05-13T01:29:34.386Z,99.90
2019-05-13T01:32:04.502Z,99.90
2019-05-13T01:34:34.141Z,99.90
2019-05-13T01:37:04.214Z,99.90
2019-05-13T01:39:34.998Z,99.90
2019-05-13T01:42:04.563Z,99.90
2019-05-13T01:44:33.879Z,99.90
2019-05-13T01:47:04.497Z,99.90
2019-05-13T01:49:34.033Z,99.90
2019-05-13T01:52:03.949Z,99.90
2019-05-13T01:54:34.063Z,99.90
2019-05-13T01:57:04.410Z,99.90
2019-05-13T01:59:34.855Z,99.90
2019-05-13T02:02:04.580Z,99.90
2019-05-13T02:04:33.948Z,99.90
2019-05-13T02:07:04.148Z,99.90
2019-05-13T02:09:34.177Z,99.90
2019-05-13T02:12:04.933Z,99.90
2019-05-13T02:14:34.619Z,99.90
2019-05-13T02:17:04.426Z,99.90
2019-05-13T02:19:33.973Z,99.90
2019-05-13T02:22:04.078Z,99.90
2019-05-13T02:24:34.360Z,99.90
2019-05-13T02:27:03.969Z,99.90
2019-05-13T02:29:34.437Z,99.90
2019-05-13T02:32:04.047Z,99.90
2019-05-13T02:34:33.293Z,99.90
2019-05-13T02:37:03.416Z,99.90
2019-05-13T02:39:33.165Z,99.90
2019-05-13T02:42:03.798Z,99.90
2019-05-13T02:44:33.571Z,99.90
2019-05-13T02:47:03.755Z,99.90
2019-05-13T02:49:33.422Z,99.90
2019-05-13T02:52:03.260Z,99.90
2019-05-13T02:54:34.340Z,99.90
2019-05-13T02:57:04.230Z,99.90
2019-05-13T02:59:34.015Z,99.90
2019-05-13T03:02:04.039Z,99.90
2019-05-13T03:04:33.625Z,99.90
2019-05-13T03:07:03.328Z,99.90
2019-05-13T03:09:32.850Z,99.90
2019-05-13T03:12:03.943Z,99.90
2019-05-13T03:14:33.379Z,99.90
2019-05-13T03:17:23.602Z,99.90
2019-05-13T03:19:53.504Z,99.90
2019-05-13T03:22:22.806Z,99.90
2019-05-13T03:24:52.494Z,99.90
2019-05-13T03:27:25.064Z,99.90
2019-05-13T03:29:53.492Z,99.90
2019-05-13T03:32:26.133Z,99.90
2019-05-13T03:34:55.880Z,99.90
2019-05-13T03:37:26.967Z,99.90
2019-05-13T03:39:56.459Z,99.90
2019-05-13T03:42:26.576Z,99.90
2019-05-13T03:44:56.084Z,99.90
2019-05-13T03:47:25.936Z,99.90
2019-05-13T03:50:03.017Z,99.90
2019-05-13T03:52:33.451Z,99.90
2019-05-13T03:55:03.131Z,99.90
2019-05-13T03:57:33.757Z,99.90
2019-05-13T04:00:03.886Z,99.90
2019-05-13T04:02:34.097Z,99.90
2019-05-13T04:05:04.343Z,99.90
2019-05-13T04:07:33.961Z,99.90
2019-05-13T04:10:03.815Z,99.90
2019-05-13T04:12:33.576Z,99.90
2019-05-13T04:15:03.841Z,99.90
2019-05-13T04:17:33.409Z,99.90
2019-05-13T04:20:03.216Z,99.90
2019-05-13T04:22:33.390Z,99.90
2019-05-13T04:25:02.921Z,99.90
2019-05-13T04:27:32.876Z,99.90
2019-05-13T04:30:03.663Z,99.90
2019-05-13T04:32:33.756Z,99.90
2019-05-13T04:35:04.030Z,99.90
2019-05-13T04:37:33.634Z,99.90
2019-05-13T04:40:03.965Z,99.90
2019-05-13T04:42:33.629Z,99.90
2019-05-13T04:45:03.341Z,99.90
2019-05-13T04:47:33.522Z,99.90
2019-05-13T04:50:03.455Z,99.90
2019-05-13T04:52:33.276Z,99.90
2019-05-13T04:55:03.635Z,99.90
2019-05-13T04:57:33.399Z,99.90
2019-05-13T05:00:04.217Z,99.90
2019-05-13T05:03:13.691Z,99.90
2019-05-13T05:06:22.703Z,99.90
2019-05-13T05:09:07.444Z,99.90
2019-05-13T05:12:15.967Z,99.90
2019-05-13T05:15:32.369Z,99.90
2019-05-13T05:18:33.405Z,99.90
2019-05-13T05:21:11.922Z,99.90
2019-05-13T05:24:17.311Z,99.90
2019-05-13T05:27:31.683Z,99.90
2019-05-13T05:30:16.759Z,99.90
2019-05-13T05:33:12.363Z,98.60
2019-05-13T05:36:12.986Z,96.70
2019-05-13T05:39:08.036Z,97.00
2019-05-13T05:41:38.257Z,95.40
2019-05-13T05:44:12.496Z,96.00
2019-05-13T05:46:42.722Z,95.20
2019-05-13T05:49:12.966Z,96.20
2019-05-13T05:51:43.106Z,96.50
2019-05-13T05:54:14.694Z,96.40
2019-05-13T05:56:45.093Z,94.90
2019-05-13T05:59:14.292Z,94.10
2019-05-13T06:01:45.663Z,94.30
2019-05-13T06:04:15.056Z,93.60
2019-05-13T06:06:46.417Z,93.50
2019-05-13T06:09:15.707Z,92.80
2019-05-13T06:11:44.979Z,92.20
2019-05-13T06:14:14.233Z,87.30
2019-05-13T06:16:43.515Z,87.10
2019-05-13T06:19:12.861Z,81.90
2019-05-13T06:21:42.252Z,81.30
2019-05-13T06:24:11.839Z,83.30
2019-05-13T06:26:41.957Z,82.20
2019-05-13T06:29:11.862Z,75.90
2019-05-13T06:31:41.903Z,77.20
2019-05-13T06:34:12.573Z,73.50
2019-05-13T06:36:42.168Z,68.50
2019-05-13T06:39:12.348Z,65.80
2019-05-13T06:41:41.960Z,58.70
2019-05-13T06:44:12.152Z,58.70
2019-05-13T06:46:42.306Z,61.80
2019-05-13T06:49:12.325Z,63.60
2019-05-13T06:51:42.030Z,64.10
2019-05-13T06:54:11.490Z,67.80
2019-05-13T06:56:42.795Z,71.60
2019-05-13T06:59:12.046Z,75.20
2019-05-13T07:01:42.377Z,74.80
2019-05-13T07:04:11.989Z,75.70
2019-05-13T07:06:41.827Z,77.10
2019-05-13T07:09:12.128Z,73.10
2019-05-13T07:11:41.848Z,67.90
2019-05-13T07:14:12.703Z,69.30
2019-05-13T07:16:43.513Z,63.20
2019-05-13T07:19:12.860Z,63.70
2019-05-13T07:21:42.196Z,65.30
2019-05-13T07:24:12.760Z,62.10
2019-05-13T07:26:42.320Z,62.60
2019-05-13T07:29:13.590Z,63.00
2019-05-13T07:31:42.727Z,60.30
2019-05-13T07:34:12.042Z,61.60
2019-05-13T07:36:42.196Z,57.50
2019-05-13T07:39:12.002Z,56.40
2019-05-13T07:41:43.053Z,55.50
2019-05-13T07:44:12.521Z,56.10
2019-05-13T07:46:42.703Z,58.50
2019-05-13T07:49:12.276Z,57.80
2019-05-13T07:51:42.165Z,56.20
2019-05-13T07:54:11.743Z,56.50
2019-05-13T07:56:42.663Z,56.90
2019-05-13T07:59:12.531Z,57.00
2019-05-13T08:01:42.019Z,56.20
2019-05-13T08:04:21.959Z,54.40
2019-05-13T08:06:42.348Z,54.60
2019-05-13T08:09:12.761Z,53.30
2019-05-13T08:12:00.594Z,52.40
2019-05-13T08:14:13.257Z,51.70
2019-05-13T08:16:42.789Z,51.90
2019-05-13T08:19:12.539Z,51.40
2019-05-13T08:21:42.242Z,53.90
2019-05-13T08:24:12.042Z,53.30
2019-05-13T08:26:44.964Z,52.50
2019-05-13T08:29:12.569Z,51.70
2019-05-13T08:31:41.955Z,50.70
2019-05-13T08:34:11.897Z,52.70
2019-05-13T08:36:42.633Z,51.70
2019-05-13T08:39:12.779Z,51.30
2019-05-13T08:41:42.537Z,50.70
2019-05-13T08:44:12.459Z,50.10
2019-05-13T08:46:42.039Z,50.20
2019-05-13T08:49:12.069Z,49.60
2019-05-13T08:51:42.410Z,49.00
2019-05-13T08:54:11.844Z,48.50
2019-05-13T08:56:41.738Z,47.60
2019-05-13T08:59:11.642Z,45.30
2019-05-13T09:01:42.709Z,46.60
2019-05-13T09:04:12.132Z,46.80
2019-05-13T09:06:42.027Z,44.50
2019-05-13T09:09:11.756Z,43.90
2019-05-13T09:11:42.219Z,44.60
2019-05-13T09:14:11.748Z,42.60
2019-05-13T09:16:41.977Z,40.50
2019-05-13T09:19:15.848Z,40.60
2019-05-13T09:21:42.564Z,43.10
2019-05-13T09:24:21.678Z,42.30
2019-05-13T09:26:42.943Z,41.20
2019-05-13T09:29:12.328Z,41.00
2019-05-13T09:31:41.754Z,42.20
2019-05-13T09:34:12.124Z,33.40
2019-05-13T09:36:41.974Z,33.70
2019-05-13T09:39:12.688Z,34.90
2019-05-13T09:41:44.658Z,34.60
2019-05-13T09:44:13.285Z,35.30
2019-05-13T09:46:42.720Z,40.20
2019-05-13T09:49:19.501Z,40.90
2019-05-13T09:51:43.099Z,40.00
2019-05-13T09:54:12.418Z,41.20
2019-05-13T09:56:41.694Z,40.00
2019-05-13T09:59:11.712Z,41.10
2019-05-13T10:01:42.520Z,41.00
2019-05-13T10:04:12.096Z,41.40
2019-05-13T10:06:42.215Z,38.50
2019-05-13T10:09:12.597Z,38.30
2019-05-13T10:11:42.193Z,44.60
2019-05-13T10:14:11.861Z,47.10
2019-05-13T10:16:42.520Z,48.40
2019-05-13T10:19:12.845Z,39.60
2019-05-13T10:21:42.374Z,35.40
2019-05-13T10:24:12.748Z,35.20
2019-05-13T10:26:43.247Z,38.80
2019-05-13T10:29:13.060Z,35.60
2019-05-13T10:31:42.466Z,36.90
2019-05-13T10:34:14.018Z,37.80
2019-05-13T10:36:42.853Z,40.30
2019-05-13T10:39:12.289Z,38.10
2019-05-13T10:41:42.257Z,36.60
2019-05-13T10:44:12.211Z,38.40
2019-05-13T10:49:12.601Z,37.20
2019-05-13T10:51:42.106Z,35.40
2019-05-13T10:54:11.429Z,37.00
2019-05-13T10:56:43.068Z,36.00
2019-05-13T10:59:12.553Z,36.60
2019-05-13T11:01:42.753Z,33.20
2019-05-13T11:04:13.986Z,35.30
2019-05-13T11:06:43.425Z,34.10
2019-05-13T11:09:13.236Z,33.80
2019-05-13T11:11:42.694Z,33.40
2019-05-13T11:14:15.574Z,34.00
2019-05-13T11:16:43.046Z,35.20
2019-05-13T11:19:12.308Z,34.50
2019-05-13T11:21:43.397Z,33.20
2019-05-13T11:24:12.988Z,33.10
2019-05-13T11:26:42.291Z,32.30
2019-05-13T11:29:12.136Z,32.10
2019-05-13T11:31:43.390Z,32.20
2019-05-13T11:34:14.080Z,32.20
2019-05-13T11:36:43.733Z,33.10
2019-05-13T11:39:13.290Z,31.30
2019-05-13T11:41:44.122Z,31.80
2019-05-13T11:44:16.956Z,31.50
2019-05-13T11:46:46.641Z,32.10
2019-05-13T11:49:15.857Z,30.70
2019-05-13T11:51:45.372Z,30.00
2019-05-13T11:54:14.781Z,31.40
2019-05-13T11:56:49.353Z,29.40
2019-05-13T11:59:15.096Z,30.00
2019-05-13T12:01:44.444Z,29.40
2019-05-13T12:04:14.637Z,29.50
2019-05-13T12:06:49.057Z,30.00
2019-05-13T12:09:16.874Z,29.80
2019-05-13T12:11:46.666Z,31.40
2019-05-13T12:14:39.261Z,29.60
2019-05-13T12:16:47.341Z,29.50
2019-05-13T12:19:17.649Z,29.00
2019-05-13T12:21:47.114Z,31.00
2019-05-13T12:24:16.565Z,29.30
2019-05-13T12:26:45.889Z,29.30
2019-05-13T12:29:18.920Z,28.90
2019-05-13T12:31:46.209Z,29.70
2019-05-13T12:34:15.857Z,29.50
2019-05-13T12:36:45.178Z,30.80
2019-05-13T12:39:14.620Z,30.00
2019-05-13T12:41:44.054Z,29.90
2019-05-13T12:44:13.420Z,30.30
2019-05-13T12:46:49.912Z,29.70
2019-05-13T12:49:14.530Z,31.10
2019-05-13T12:51:44.255Z,31.60
2019-05-13T12:54:14.313Z,30.90
2019-05-13T12:56:43.721Z,31.00
2019-05-13T12:59:13.532Z,31.30
2019-05-13T13:01:43.086Z,31.30
2019-05-13T13:04:12.694Z,31.00
2019-05-13T13:06:45.308Z,29.80
2019-05-13T13:09:13.179Z,30.60
2019-05-13T13:11:43.465Z,30.10
2019-05-13T13:14:15.849Z,30.70
2019-05-13T13:16:44.204Z,31.90
2019-05-13T13:19:14.999Z,30.90
2019-05-13T13:21:44.569Z,32.70
2019-05-13T13:24:13.839Z,33.20
2019-05-13T13:26:43.088Z,33.50
2019-05-13T13:29:12.478Z,32.70
2019-05-13T13:31:43.071Z,32.10
2019-05-13T13:34:18.023Z,31.80
2019-05-13T13:36:46.081Z,31.60
2019-05-13T13:39:15.393Z,31.00
2019-05-13T13:41:44.838Z,32.10
2019-05-13T13:44:14.178Z,32.20
2019-05-13T13:46:49.553Z,31.80
2019-05-13T13:49:14.536Z,32.60
2019-05-13T13:51:44.986Z,32.20
2019-05-13T13:54:14.507Z,32.70
2019-05-13T13:56:44.405Z,32.00
2019-05-13T13:59:14.498Z,31.90
2019-05-13T14:01:44.028Z,32.20
2019-05-13T14:04:16.478Z,31.40
2019-05-13T14:07:03.201Z,38.80
2019-05-13T14:09:15.388Z,31.50
2019-05-13T14:11:44.577Z,30.70
2019-05-13T14:14:13.805Z,30.20
2019-05-13T14:16:46.428Z,31.20
2019-05-13T14:19:14.073Z,31.30
2019-05-13T14:21:43.405Z,30.50
2019-05-13T14:24:12.751Z,30.00
2019-05-13T14:26:43.373Z,30.50
2019-05-13T14:29:12.924Z,31.90
2019-05-13T14:31:42.675Z,31.30
2019-05-13T14:34:11.841Z,30.10
2019-05-13T14:36:41.180Z,30.00
2019-05-13T14:39:12.037Z,30.40
2019-05-13T14:41:42.525Z,30.60
2019-05-13T14:44:12.620Z,30.40
2019-05-13T14:46:47.690Z,29.90
2019-05-13T14:49:12.964Z,30.70
2019-05-13T14:51:42.248Z,29.70
2019-05-13T14:54:11.447Z,29.40
2019-05-13T14:56:42.034Z,30.00
2019-05-13T14:59:11.906Z,30.00
2019-05-13T15:01:41.545Z,30.00
2019-05-13T15:04:12.230Z,29.90
2019-05-13T15:06:41.856Z,30.00
2019-05-13T15:09:12.673Z,30.90
2019-05-13T15:11:42.269Z,31.00
2019-05-13T15:14:11.731Z,30.90
2019-05-13T15:16:42.522Z,29.80
2019-05-13T15:19:12.145Z,30.30
2019-05-13T15:21:41.539Z,33.10
2019-05-13T15:24:12.343Z,31.00
2019-05-13T15:26:42.296Z,31.00
2019-05-13T15:29:11.867Z,31.60
2019-05-13T15:31:42.165Z,31.60
2019-05-13T15:34:11.631Z,32.00
2019-05-13T15:36:41.932Z,32.20
2019-05-13T15:39:11.996Z,32.90
2019-05-13T15:41:41.879Z,34.60
2019-05-13T15:44:11.492Z,33.70
2019-05-13T15:46:41.777Z,33.70
2019-05-13T15:49:12.391Z,33.50
2019-05-13T15:51:42.322Z,33.10
2019-05-13T15:54:15.331Z,32.90
2019-05-13T15:56:42.820Z,33.30
2019-05-13T15:59:12.679Z,33.60
2019-05-13T16:01:43.134Z,33.00
2019-05-13T16:04:13.577Z,32.90
2019-05-13T16:06:43.117Z,33.80
2019-05-13T16:09:12.490Z,31.60
2019-05-13T16:11:41.883Z,34.10
2019-05-13T16:14:11.823Z,32.20
2019-05-13T16:16:41.812Z,34.60
2019-05-13T16:19:11.305Z,32.00
2019-05-13T16:21:41.672Z,32.10
2019-05-13T16:24:12.104Z,33.40
2019-05-13T16:26:42.627Z,34.30
2019-05-13T16:29:12.687Z,32.00
2019-05-13T16:31:42.205Z,34.20
2019-05-13T16:34:13.416Z,32.70
2019-05-13T16:36:43.299Z,32.90
2019-05-13T16:39:12.822Z,33.50
2019-05-13T16:41:42.828Z,33.80
2019-05-13T16:44:12.302Z,33.30
2019-05-13T16:46:42.523Z,33.40
2019-05-13T16:49:12.372Z,33.70
2019-05-13T16:51:42.713Z,34.20
2019-05-13T16:54:12.237Z,33.80
2019-05-13T16:56:42.004Z,33.80
2019-05-13T16:59:11.727Z,34.50
2019-05-13T17:01:42.042Z,34.80
2019-05-13T17:04:12.598Z,34.70
2019-05-13T17:06:42.073Z,34.30
2019-05-13T17:09:11.752Z,35.50
2019-05-13T17:11:41.486Z,35.50
2019-05-13T17:14:11.158Z,36.30
2019-05-13T17:16:41.357Z,36.20
2019-05-13T17:19:12.217Z,36.30
2019-05-13T17:21:41.697Z,36.00
2019-05-13T17:24:12.495Z,36.50
2019-05-13T17:26:42.231Z,37.00
2019-05-13T17:29:12.187Z,37.50
2019-05-13T17:31:41.988Z,37.10
2019-05-13T17:34:12.045Z,38.10
2019-05-13T17:36:42.092Z,38.30
2019-05-13T17:39:12.448Z,38.70
2019-05-13T17:41:42.296Z,38.80
2019-05-13T17:44:11.850Z,47.20
2019-05-13T17:46:41.916Z,40.80
2019-05-13T17:49:11.912Z,41.40
2019-05-13T17:51:42.620Z,43.10
2019-05-13T17:54:12.155Z,43.30
2019-05-13T17:56:41.514Z,40.00
2019-05-13T17:59:11.584Z,40.30
2019-05-13T18:01:41.459Z,42.40
2019-05-13T18:04:11.878Z,41.20
2019-05-13T18:06:41.849Z,40.80
2019-05-13T18:09:12.125Z,41.30
2019-05-13T18:11:41.844Z,42.10
2019-05-13T18:14:11.552Z,44.20
2019-05-13T18:16:41.995Z,42.40
2019-05-13T18:19:12.070Z,42.00
2019-05-13T18:21:42.472Z,42.70
2019-05-13T18:24:12.090Z,41.00
2019-05-13T18:26:42.078Z,40.90
2019-05-13T18:29:12.493Z,42.10
2019-05-13T18:31:42.361Z,43.70
2019-05-13T18:34:12.294Z,45.00
2019-05-13T18:36:42.575Z,42.00
2019-05-13T18:39:12.540Z,44.10
2019-05-13T18:41:42.069Z,42.00
2019-05-13T18:44:12.311Z,45.70
2019-05-13T18:46:42.024Z,44.40
2019-05-13T18:49:12.058Z,44.90
2019-05-13T18:51:42.253Z,46.50
2019-05-13T18:54:12.182Z,45.70
2019-05-13T18:56:41.949Z,42.20
2019-05-13T18:59:12.541Z,42.20
2019-05-13T19:01:42.018Z,43.20
2019-05-13T19:04:11.664Z,44.00
2019-05-13T19:06:42.410Z,44.70
2019-05-13T19:09:11.945Z,45.40
2019-05-13T19:11:42.717Z,45.90
2019-05-13T19:14:12.711Z,46.00
2019-05-13T19:16:43.231Z,46.60
2019-05-13T19:19:15.908Z,47.00
2019-05-13T19:21:43.884Z,47.10
2019-05-13T19:24:13.614Z,47.60
2019-05-13T19:26:43.048Z,48.10
2019-05-13T19:29:12.429Z,48.20
2019-05-13T19:31:42.058Z,49.10
2019-05-13T19:34:12.533Z,48.50
2019-05-13T19:36:42.151Z,48.90
2019-05-13T19:39:11.605Z,49.80
2019-05-13T19:41:42.281Z,50.00
2019-05-13T19:44:11.832Z,50.00
2019-05-13T19:46:42.176Z,50.30
2019-05-13T19:49:13.822Z,50.30
2019-05-13T19:51:43.059Z,50.40
2019-05-13T19:54:12.489Z,50.30
2019-05-13T19:56:41.883Z,50.40
2019-05-13T19:59:12.440Z,51.00
2019-05-13T20:01:42.431Z,51.10
2019-05-13T20:04:12.258Z,51.20
2019-05-13T20:06:41.736Z,51.40
2019-05-13T20:09:11.162Z,51.60
2019-05-13T20:11:42.027Z,51.30
2019-05-13T20:14:12.239Z,51.20
2019-05-13T20:16:42.988Z,51.10
2019-05-13T20:19:12.392Z,51.30
2019-05-13T20:21:42.603Z,51.20
2019-05-13T20:24:12.125Z,51.50
2019-05-13T20:26:41.841Z,51.60
2019-05-13T20:29:12.401Z,52.10
2019-05-13T20:31:44.860Z,51.60
2019-05-13T20:34:14.160Z,52.10
2019-05-13T20:36:43.460Z,51.90
2019-05-13T20:39:13.041Z,51.40
2019-05-13T20:41:42.419Z,51.60
2019-05-13T20:44:12.085Z,51.50
2019-05-13T20:46:42.406Z,51.80
2019-05-13T20:49:12.207Z,51.30
2019-05-13T20:51:41.719Z,51.40
2019-05-13T20:54:11.477Z,51.30
2019-05-13T20:56:42.170Z,51.00
2019-05-13T20:59:11.765Z,51.00
2019-05-13T21:01:41.969Z,51.10
2019-05-13T21:04:12.369Z,50.70
2019-05-13T21:06:45.243Z,51.50
2019-05-13T21:09:17.026Z,51.00
2019-05-13T21:11:45.724Z,51.00
2019-05-13T21:14:15.049Z,51.10
2019-05-13T21:16:44.443Z,51.10
2019-05-13T21:19:13.817Z,51.20
2019-05-13T21:21:43.165Z,51.50
2019-05-13T21:24:12.525Z,51.50
2019-05-13T21:26:42.134Z,51.90
2019-05-13T21:29:11.636Z,52.10
2019-05-13T21:31:41.521Z,52.70
2019-05-13T21:34:11.865Z,52.70
2019-05-13T21:36:41.663Z,53.00
2019-05-13T21:39:12.471Z,53.10
2019-05-13T21:41:41.991Z,53.60
2019-05-13T21:44:11.887Z,53.80
2019-05-13T21:46:41.682Z,53.60
2019-05-13T21:49:11.971Z,53.60
2019-05-13T21:51:41.895Z,54.20
2019-05-13T21:54:11.871Z,54.10
2019-05-13T21:56:42.698Z,53.90
2019-05-13T21:59:12.337Z,54.20
2019-05-13T22:01:42.271Z,54.40
2019-05-13T22:04:12.399Z,54.00
2019-05-13T22:06:41.989Z,54.20
2019-05-13T22:09:12.421Z,54.20
2019-05-13T22:11:42.179Z,54.40
2019-05-13T22:14:11.721Z,54.30
2019-05-13T22:16:41.411Z,54.20
2019-05-13T22:19:12.259Z,54.40
2019-05-13T22:21:42.389Z,54.40
2019-05-13T22:24:12.049Z,54.80
2019-05-13T22:26:44.354Z,54.50
2019-05-13T22:29:13.714Z,55.00
2019-05-13T22:31:43.528Z,54.90
2019-05-13T22:34:12.881Z,55.60
2019-05-13T22:36:42.201Z,55.80
2019-05-13T22:39:11.679Z,55.70
2019-05-13T22:41:42.154Z,55.80
2019-05-13T22:44:11.960Z,56.00
2019-05-13T22:46:41.705Z,56.00
2019-05-13T22:49:11.775Z,56.10
2019-05-13T22:51:41.408Z,56.60
2019-05-13T22:54:11.875Z,57.20
2019-05-13T22:56:41.665Z,57.90
2019-05-13T22:59:12.256Z,58.20
2019-05-13T23:01:42.103Z,58.80
2019-05-13T23:04:11.616Z,59.50
2019-05-13T23:06:41.169Z,59.00
2019-05-13T23:09:12.488Z,59.80
2019-05-13T23:11:41.854Z,60.30
2019-05-13T23:14:13.447Z,60.80
2019-05-13T23:16:42.411Z,60.30
2019-05-13T23:19:11.821Z,60.80
2019-05-13T23:21:41.819Z,60.70
2019-05-13T23:24:12.459Z,61.00
2019-05-13T23:26:42.363Z,60.80
2019-05-13T23:29:11.798Z,61.30
2019-05-13T23:31:41.613Z,61.60
2019-05-13T23:34:12.020Z,61.80
2019-05-13T23:36:42.295Z,61.90
2019-05-13T23:39:11.928Z,62.00
2019-05-13T23:41:41.714Z,62.60
2019-05-13T23:44:23.683Z,63.10
2019-05-13T23:46:42.197Z,63.50
2019-05-13T23:49:11.983Z,63.70
2019-05-13T23:51:41.710Z,63.90
2019-05-13T23:54:12.222Z,64.80
2019-05-13T23:56:41.844Z,64.30
2019-05-13T23:59:11.464Z,65.00
